Time;durP1;ratioP1;P1;durP2;ratioP2;P2;SDS_P1;SDS_P2;PMS_P1;PMS_P2;Temp;Humidity;BMP_temperature;BMP_pressure;BME280_temperature;BME280_humidity;BME280_pressure;Samples;Min_cycle;Max_cycle;Signal;HPM_P1;HPM_P2
2022/05/30 00:01:15;;;;;;;7.60;1.50;;;9.10;99.90;;;;;;5037357;28;20057;-75
2022/05/30 00:03:43;;;;;;;11.23;2.20;;;9.00;99.90;;;;;;5042149;28;20087;-75
2022/05/30 00:06:11;;;;;;;6.10;1.90;;;9.00;99.90;;;;;;5051697;28;20067;-76
2022/05/30 00:08:37;;;;;;;9.13;2.13;;;9.00;99.90;;;;;;5034289;28;20083;-76
2022/05/30 00:11:03;;;;;;;8.10;1.83;;;8.90;99.90;;;;;;5045278;28;20053;-75
2022/05/30 00:13:30;;;;;;;10.73;2.00;;;8.90;99.90;;;;;;5023634;28;20044;-75
2022/05/30 00:15:55;;;;;;;11.37;2.33;;;8.80;99.90;;;;;;5050462;28;20457;-75
2022/05/30 00:18:21;;;;;;;7.57;2.57;;;8.80;99.90;;;;;;5032077;28;20048;-75
2022/05/30 00:20:49;;;;;;;8.63;2.20;;;8.80;99.90;;;;;;5035847;28;20107;-76
2022/05/30 00:23:15;;;;;;;9.40;2.33;;;8.80;99.90;;;;;;5034990;28;20068;-76
2022/05/30 00:25:41;;;;;;;10.73;2.10;;;8.70;99.90;;;;;;5051974;28;20115;-75
2022/05/30 00:28:07;;;;;;;7.53;2.13;;;8.70;99.90;;;;;;5035470;28;20052;-75
2022/05/30 00:30:34;;;;;;;9.57;1.90;;;8.60;99.90;;;;;;5017938;28;20041;-75
2022/05/30 00:32:59;;;;;;;10.60;2.07;;;8.60;99.90;;;;;;5035225;28;20116;-75
2022/05/30 00:35:25;;;;;;;7.87;1.80;;;8.60;99.90;;;;;;5030181;28;20052;-76
2022/05/30 00:37:52;;;;;;;13.50;2.20;;;8.60;99.90;;;;;;5011136;28;20059;-75
2022/05/30 00:40:18;;;;;;;5.67;1.97;;;8.60;99.90;;;;;;5015302;28;20060;-75
2022/05/30 00:42:44;;;;;;;10.10;2.27;;;8.60;99.90;;;;;;5023165;28;20045;-75
2022/05/30 00:45:10;;;;;;;6.50;2.10;;;8.60;99.90;;;;;;5035042;28;20068;-75
2022/05/30 00:47:37;;;;;;;11.50;2.00;;;8.50;99.90;;;;;;5049788;28;20045;-75
2022/05/30 00:50:04;;;;;;;10.37;2.50;;;8.50;99.90;;;;;;5035245;28;20068;-75
2022/05/30 00:52:35;;;;;;;6.13;1.83;;;8.40;99.90;;;;;;5030889;28;20119;-75
2022/05/30 00:55:07;;;;;;;9.33;2.10;;;8.40;99.90;;;;;;5018408;28;20579;-75
2022/05/30 00:57:34;;;;;;;8.77;2.93;;;8.30;99.90;;;;;;5033146;28;20056;-76
2022/05/30 01:00:03;;;;;;;12.93;2.87;;;8.20;99.90;;;;;;5050973;28;20040;-74
2022/05/30 01:02:34;;;;;;;8.33;2.63;;;8.10;99.90;;;;;;5033590;28;20040;-75
2022/05/30 01:07:46;;;;;;;10.93;2.50;;;8.10;99.90;;;;;;5050296;28;20517;-75
2022/05/30 01:10:16;;;;;;;8.67;2.50;;;8.20;99.90;;;;;;5033883;28;20396;-75
2022/05/30 01:12:44;;;;;;;6.27;2.93;;;8.10;99.90;;;;;;5030595;28;20045;-75
2022/05/30 01:15:13;;;;;;;10.77;2.93;;;8.00;99.90;;;;;;5044019;28;20047;-75
2022/05/30 01:17:48;;;;;;;5.43;2.40;;;8.00;99.90;;;;;;5029769;28;20068;-77
2022/05/30 01:20:23;;;;;;;9.07;2.80;;;8.00;99.90;;;;;;5039251;28;20413;-78
2022/05/30 01:23:25;;;;;;;9.20;2.80;;;7.90;99.90;;;;;;5056739;28;20045;-77
2022/05/30 01:26:11;;;;;;;7.97;2.70;;;7.90;99.90;;;;;;5019412;28;20053;-78
2022/05/30 01:28:52;;;;;;;8.40;2.60;;;7.80;99.90;;;;;;5032111;28;20045;-77
2022/05/30 01:31:17;;;;;;;10.48;2.72;;;7.80;99.90;;;;;;5029335;28;20045;-77
2022/05/30 01:33:43;;;;;;;10.33;2.37;;;7.70;99.90;;;;;;5032807;28;20167;-77
2022/05/30 01:36:10;;;;;;;11.93;2.87;;;7.60;99.90;;;;;;5035080;28;20055;-76
2022/05/30 01:38:36;;;;;;;7.17;2.50;;;7.60;99.90;;;;;;5049978;28;20051;-77
2022/05/30 01:41:04;;;;;;;8.77;3.33;;;7.50;99.90;;;;;;5048851;28;20043;-77
2022/05/30 01:43:31;;;;;;;8.73;2.93;;;7.50;99.90;;;;;;5026830;28;20399;-77
2022/05/30 01:46:07;;;;;;;9.80;3.10;;;7.50;99.90;;;;;;5049355;28;20069;-77
2022/05/30 01:48:34;;;;;;;11.53;3.00;;;7.50;99.90;;;;;;5052708;28;20499;-77
2022/05/30 01:51:01;;;;;;;13.17;3.30;;;7.50;99.90;;;;;;5036981;28;20410;-78
2022/05/30 01:53:29;;;;;;;8.93;2.27;;;7.50;99.90;;;;;;5020245;28;20438;-78
2022/05/30 01:56:18;;;;;;;8.80;2.67;;;7.50;99.90;;;;;;5050602;28;20537;-77
2022/05/30 01:58:43;;;;;;;6.67;2.43;;;7.40;99.90;;;;;;5044937;28;20048;-77
2022/05/30 02:01:30;;;;;;;9.10;2.47;;;7.40;99.90;;;;;;5029041;28;20078;-77
2022/05/30 02:04:01;;;;;;;6.53;2.17;;;7.30;99.90;;;;;;5017952;28;20045;-77
2022/05/30 02:06:27;;;;;;;11.67;2.90;;;7.30;99.90;;;;;;5015186;28;20496;-79
2022/05/30 02:08:53;;;;;;;8.60;2.60;;;7.20;99.90;;;;;;5019355;28;20040;-78
2022/05/30 02:11:24;;;;;;;9.57;2.57;;;7.20;99.90;;;;;;5020441;28;20508;-78
2022/05/30 02:13:55;;;;;;;6.53;2.10;;;7.20;99.90;;;;;;5028714;28;20431;-77
2022/05/30 02:19:17;;;;;;;10.10;3.43;;;7.10;99.90;;;;;;5029618;28;20052;-77
2022/05/30 02:21:44;;;;;;;11.83;2.30;;;7.10;99.90;;;;;;5029440;28;20131;-77
2022/05/30 02:24:11;;;;;;;7.23;3.33;;;7.10;99.90;;;;;;5028828;28;20037;-77
2022/05/30 02:26:37;;;;;;;9.37;3.00;;;7.10;99.90;;;;;;5036172;28;20041;-78
2022/05/30 02:29:06;;;;;;;10.70;3.70;;;7.10;99.90;;;;;;5019334;28;20135;-77
2022/05/30 02:31:33;;;;;;;11.97;3.40;;;7.20;99.90;;;;;;5011918;28;20095;-77
2022/05/30 02:36:44;;;;;;;10.82;3.25;;;7.20;99.90;;;;;;5026566;28;20464;-78
2022/05/30 02:39:14;;;;;;;11.53;3.30;;;7.20;99.90;;;;;;5034977;28;20067;-77
2022/05/30 02:42:00;;;;;;;6.60;2.17;;;7.20;99.90;;;;;;5025910;28;20045;-78
2022/05/30 02:44:29;;;;;;;8.83;2.43;;;7.20;99.90;;;;;;5035625;28;20087;-77
2022/05/30 02:46:57;;;;;;;9.77;2.73;;;7.10;99.90;;;;;;5032787;28;20055;-77
2022/05/30 02:49:25;;;;;;;8.67;2.80;;;7.10;99.90;;;;;;5050593;28;20075;-78
2022/05/30 02:51:51;;;;;;;9.70;2.43;;;7.00;99.90;;;;;;5034834;28;20415;-77
2022/05/30 02:54:18;;;;;;;6.57;2.23;;;7.00;99.90;;;;;;5027388;28;20522;-77
2022/05/30 02:57:03;;;;;;;6.37;2.37;;;7.00;99.90;;;;;;5038045;28;20063;-77
2022/05/30 02:59:30;;;;;;;5.87;2.30;;;6.90;99.90;;;;;;5011408;28;20052;-77
2022/05/30 03:02:06;;;;;;;6.87;2.53;;;6.90;99.90;;;;;;5045763;28;20045;-77
2022/05/30 03:04:32;;;;;;;6.00;2.20;;;6.80;99.90;;;;;;5045733;28;20038;-77
2022/05/30 03:07:02;;;;;;;7.53;2.17;;;6.80;99.90;;;;;;5049420;28;20049;-78
2022/05/30 03:09:29;;;;;;;6.27;2.40;;;6.80;99.90;;;;;;5031287;28;20096;-77
2022/05/30 03:12:10;;;;;;;3.80;1.80;;;6.70;99.90;;;;;;5033522;28;20052;-77
2022/05/30 03:14:35;;;;;;;4.33;1.83;;;6.70;99.90;;;;;;5034672;28;20041;-78
2022/05/30 03:17:01;;;;;;;5.07;1.50;;;6.60;99.90;;;;;;5021179;28;20049;-78
2022/05/30 03:19:28;;;;;;;1.83;1.20;;;6.60;99.90;;;;;;5034463;28;20044;-79
2022/05/30 03:21:57;;;;;;;5.77;1.93;;;6.60;99.90;;;;;;5018750;28;20108;-77
2022/05/30 03:24:23;;;;;;;4.40;1.60;;;6.50;99.90;;;;;;5033815;28;20033;-78
2022/05/30 03:26:49;;;;;;;5.77;1.43;;;6.50;99.90;;;;;;5034299;28;20490;-77
2022/05/30 03:29:18;;;;;;;5.70;1.60;;;6.50;99.90;;;;;;5033714;28;20396;-77
2022/05/30 03:31:46;;;;;;;8.47;2.30;;;6.40;99.90;;;;;;5022751;28;20421;-77
2022/05/30 03:34:12;;;;;;;3.93;2.20;;;6.40;99.90;;;;;;5017131;28;20390;-77
2022/05/30 03:36:39;;;;;;;6.03;2.07;;;6.40;99.90;;;;;;5017998;28;20445;-77
2022/05/30 03:39:23;;;;;;;5.53;2.40;;;6.30;99.90;;;;;;5042925;28;20122;-77
2022/05/30 03:42:18;;;;;;;5.18;2.33;;;6.30;99.90;;;;;;5049314;28;20045;-77
2022/05/30 03:44:47;;;;;;;6.50;2.50;;;6.20;99.90;;;;;;5049124;28;20053;-77
2022/05/30 03:47:14;;;;;;;5.50;1.87;;;6.20;99.90;;;;;;5015891;28;20423;-78
2022/05/30 03:49:40;;;;;;;3.50;1.80;;;6.20;99.90;;;;;;5032960;28;20153;-78
2022/05/30 03:52:08;;;;;;;2.47;1.00;;;6.20;99.90;;;;;;5031861;28;20077;-77
2022/05/30 03:54:33;;;;;;;2.83;1.40;;;6.20;99.90;;;;;;5029379;28;20033;-78
2022/05/30 03:56:59;;;;;;;2.27;1.30;;;6.20;99.90;;;;;;5033313;28;20045;-77
2022/05/30 03:59:27;;;;;;;1.30;0.80;;;6.20;99.90;;;;;;5032444;28;20044;-78
2022/05/30 04:01:53;;;;;;;5.20;2.00;;;6.10;99.90;;;;;;5015640;28;20049;-77
2022/05/30 04:04:18;;;;;;;5.30;2.60;;;6.10;99.90;;;;;;5052132;28;20064;-77
2022/05/30 04:06:45;;;;;;;5.90;3.17;;;6.10;99.90;;;;;;5022036;28;20045;-77
2022/05/30 04:09:12;;;;;;;5.73;2.60;;;6.20;99.90;;;;;;5046497;28;20045;-77
2022/05/30 04:11:40;;;;;;;9.77;2.30;;;6.20;99.90;;;;;;5055533;28;20049;-77
2022/05/30 04:14:25;;;;;;;8.03;2.90;;;6.10;99.90;;;;;;5035520;28;20130;-77
2022/05/30 04:17:04;;;;;;;8.17;2.70;;;6.10;99.90;;;;;;5013685;28;20060;-78
2022/05/30 04:19:30;;;;;;;4.73;2.73;;;6.10;99.90;;;;;;5043551;28;20041;-77
2022/05/30 04:21:56;;;;;;;5.77;3.20;;;6.10;99.90;;;;;;5021886;28;20087;-77
2022/05/30 04:24:33;;;;;;;8.80;3.27;;;6.10;99.90;;;;;;5022353;28;20314;-78
2022/05/30 04:27:03;;;;;;;7.77;3.13;;;6.10;99.90;;;;;;5047640;28;20048;-77
2022/05/30 04:29:29;;;;;;;8.93;3.37;;;6.10;99.90;;;;;;5038217;28;20045;-77
2022/05/30 04:32:18;;;;;;;5.70;3.40;;;6.10;99.90;;;;;;5019975;28;20149;-78
2022/05/30 04:34:44;;;;;;;11.60;3.40;;;6.10;99.90;;;;;;5018297;28;20128;-77
2022/05/30 04:37:12;;;;;;;7.47;3.10;;;6.20;99.90;;;;;;5027487;28;20045;-77
2022/05/30 04:39:42;;;;;;;5.67;3.27;;;6.20;99.90;;;;;;5057182;28;20041;-77
2022/05/30 04:42:47;;;;;;;9.77;3.80;;;6.20;99.90;;;;;;5035416;28;20064;-78
2022/05/30 04:45:33;;;;;;;6.13;2.93;;;6.30;99.90;;;;;;5015401;28;20068;-78
2022/05/30 04:48:11;;;;;;;12.10;4.27;;;6.30;99.90;;;;;;5017573;28;20041;-77
2022/05/30 04:50:37;;;;;;;10.27;3.30;;;6.40;99.90;;;;;;5048594;28;20556;-78
2022/05/30 04:53:03;;;;;;;9.77;3.70;;;6.40;99.90;;;;;;5035442;28;20129;-78
2022/05/30 04:55:49;;;;;;;15.87;4.13;;;6.50;99.90;;;;;;5055087;28;20628;-78
2022/05/30 04:58:28;;;;;;;7.63;3.60;;;6.50;99.90;;;;;;5039304;28;20107;-78
2022/05/30 05:01:06;;;;;;;11.40;4.10;;;6.60;99.90;;;;;;5038357;28;20116;-78
2022/05/30 05:03:33;;;;;;;11.30;4.30;;;6.60;99.90;;;;;;5039410;28;20041;-77
2022/05/30 05:06:00;;;;;;;9.47;3.80;;;6.70;99.90;;;;;;5032156;28;20071;-78
2022/05/30 05:08:32;;;;;;;10.03;4.30;;;6.80;99.90;;;;;;5035145;28;20039;-77
2022/05/30 05:11:30;;;;;;;7.40;3.57;;;6.90;99.90;;;;;;5050097;28;20130;-76
2022/05/30 05:14:18;;;;;;;6.00;3.37;;;7.10;99.90;;;;;;5060050;28;20052;-77
2022/05/30 05:17:05;;;;;;;10.73;4.03;;;7.20;99.90;;;;;;5052472;28;20117;-77
2022/05/30 05:19:33;;;;;;;8.20;4.00;;;7.40;99.90;;;;;;5050665;28;20414;-77
2022/05/30 05:21:59;;;;;;;11.23;4.03;;;7.50;99.90;;;;;;5039401;28;20041;-77
2022/05/30 05:24:25;;;;;;;7.33;3.40;;;7.60;99.90;;;;;;5046126;28;20039;-79
2022/05/30 05:27:14;;;;;;;10.30;3.80;;;7.70;99.90;;;;;;5047037;28;20593;-78
2022/05/30 05:29:40;;;;;;;8.17;3.77;;;7.80;99.90;;;;;;5038863;28;20415;-77
2022/05/30 05:32:07;;;;;;;10.43;3.63;;;7.90;99.90;;;;;;5039347;28;20060;-77
2022/05/30 05:34:33;;;;;;;6.23;3.20;;;8.00;99.90;;;;;;5036607;28;20040;-77
2022/05/30 05:36:59;;;;;;;6.17;3.33;;;8.00;99.90;;;;;;5037074;28;20486;-77
2022/05/30 05:39:27;;;;;;;6.03;3.20;;;8.10;99.90;;;;;;5035614;28;20040;-79
2022/05/30 05:41:55;;;;;;;7.90;3.03;;;8.10;99.90;;;;;;5027019;28;20069;-76
2022/05/30 05:44:22;;;;;;;7.53;3.47;;;8.10;99.90;;;;;;5024225;28;20404;-76
2022/05/30 05:46:49;;;;;;;7.47;3.50;;;8.20;99.90;;;;;;5061433;28;20051;-76
2022/05/30 05:49:16;;;;;;;5.20;3.17;;;8.20;99.90;;;;;;5042611;28;20395;-76
2022/05/30 05:51:42;;;;;;;8.10;3.30;;;8.20;99.90;;;;;;5028911;28;20048;-76
2022/05/30 05:54:10;;;;;;;6.57;3.30;;;8.30;99.90;;;;;;5042997;28;20028;-78
2022/05/30 05:56:37;;;;;;;11.43;3.83;;;8.30;99.90;;;;;;5044156;28;20144;-78
2022/05/30 05:59:09;;;;;;;12.20;3.80;;;8.40;99.90;;;;;;5015700;28;20200;-76
2022/05/30 06:01:36;;;;;;;8.80;3.97;;;8.60;99.90;;;;;;5045924;28;20502;-76
2022/05/30 06:04:05;;;;;;;9.73;3.07;;;8.90;99.90;;;;;;5046766;28;20037;-76
2022/05/30 06:06:51;;;;;;;7.93;3.93;;;9.20;99.90;;;;;;5058000;28;20644;-79
2022/05/30 06:09:26;;;;;;;7.60;3.40;;;9.40;99.90;;;;;;5057971;28;20575;-77
2022/05/30 06:11:56;;;;;;;5.13;3.03;;;9.60;99.90;;;;;;5057402;28;20036;-76
2022/05/30 06:14:23;;;;;;;6.23;3.03;;;9.60;99.90;;;;;;5038103;28;20063;-76
2022/05/30 06:16:51;;;;;;;8.97;3.40;;;9.70;99.90;;;;;;5036075;28;20131;-76
2022/05/30 06:19:20;;;;;;;6.83;2.90;;;9.80;99.90;;;;;;5031614;28;20037;-76
2022/05/30 06:21:46;;;;;;;7.13;3.33;;;9.90;99.90;;;;;;5014627;28;20521;-76
2022/05/30 06:24:14;;;;;;;6.37;2.50;;;10.10;99.90;;;;;;5051543;28;20037;-77
2022/05/30 06:26:58;;;;;;;7.13;2.00;;;10.20;99.90;;;;;;5036145;28;20406;-80
2022/05/30 06:29:51;;;;;;;4.67;1.87;;;10.30;99.90;;;;;;5052192;28;20075;-77
2022/05/30 06:32:18;;;;;;;5.30;1.63;;;10.50;99.90;;;;;;5036054;28;20407;-77
2022/05/30 06:34:56;;;;;;;4.47;1.90;;;10.50;99.90;;;;;;5028797;28;20043;-76
2022/05/30 06:37:23;;;;;;;5.30;1.63;;;10.50;99.90;;;;;;5056719;28;20064;-77
2022/05/30 06:39:50;;;;;;;4.53;1.40;;;10.60;99.90;;;;;;5039092;28;20051;-78
2022/05/30 06:42:26;;;;;;;3.07;1.40;;;10.60;99.90;;;;;;5058353;28;20194;-77
2022/05/30 06:45:12;;;;;;;5.53;1.67;;;10.60;99.90;;;;;;5055270;28;20046;-78
2022/05/30 06:47:39;;;;;;;3.73;1.40;;;10.70;99.90;;;;;;5052088;28;20103;-76
2022/05/30 06:50:23;;;;;;;5.47;1.60;;;10.80;99.90;;;;;;5059633;28;20557;-77
2022/05/30 06:52:49;;;;;;;6.70;1.57;;;10.80;99.90;;;;;;5042415;28;20041;-77
2022/05/30 06:55:15;;;;;;;5.13;1.00;;;10.90;99.90;;;;;;5048960;28;20052;-76
2022/05/30 07:00:25;;;;;;;4.78;1.27;;;11.00;99.90;;;;;;5032332;28;20045;-76
2022/05/30 07:03:11;;;;;;;3.25;1.50;;;11.00;99.90;;;;;;5049910;28;20464;-75
2022/05/30 07:05:55;;;;;;;4.77;1.17;;;11.00;99.90;;;;;;5040700;28;20422;-81
2022/05/30 07:08:51;;;;;;;7.63;1.00;;;11.20;99.90;;;;;;5048664;28;20177;-77
2022/05/30 07:11:38;;;;;;;3.13;0.90;;;11.30;99.90;;;;;;5043712;28;20056;-77
2022/05/30 07:14:06;;;;;;;2.37;1.00;;;11.50;99.90;;;;;;5033776;28;20251;-77
2022/05/30 07:16:31;;;;;;;3.40;1.00;;;11.60;99.90;;;;;;5014008;28;20110;-76
2022/05/30 07:18:59;;;;;;;5.23;1.00;;;11.80;99.90;;;;;;5039284;28;20044;-76
2022/05/30 07:21:25;;;;;;;2.07;1.10;;;11.90;99.90;;;;;;5022593;28;20159;-77
2022/05/30 07:24:10;;;;;;;;;;;11.90;99.90;;;;;;5039476;28;20517;-77
2022/05/30 07:26:54;;;;;;;3.50;1.27;;;12.00;99.90;;;;;;5043606;28;19927;-76
2022/05/30 07:29:40;;;;;;;3.63;1.30;;;12.00;99.90;;;;;;5058552;28;20063;-77
2022/05/30 07:32:41;;;;;;;5.00;1.30;;;12.10;99.90;;;;;;5044440;28;20052;-78
2022/05/30 07:35:26;;;;;;;3.90;1.05;;;12.20;99.90;;;;;;5052139;28;20052;-76
2022/05/30 07:38:11;;;;;;;3.90;1.00;;;12.20;99.90;;;;;;5045547;28;20049;-75
2022/05/30 07:41:05;;;;;;;;;;;12.20;99.90;;;;;;5044719;28;20057;-78
2022/05/30 07:43:31;;;;;;;4.87;0.80;;;12.20;99.90;;;;;;5054038;28;19921;-76
2022/05/30 07:46:17;;;;;;;2.53;1.40;;;12.30;99.90;;;;;;5053294;28;20121;-81
2022/05/30 07:48:50;;;;;;;1.70;0.97;;;12.30;99.90;;;;;;5011618;28;20556;-77
2022/05/30 07:51:47;;;;;;;1.90;0.80;;;12.30;99.90;;;;;;5050992;28;20037;-76
2022/05/30 07:54:22;;;;;;;2.47;0.80;;;12.40;99.90;;;;;;5040179;28;20444;-77
2022/05/30 07:57:08;;;;;;;3.03;0.90;;;12.40;99.90;;;;;;5042325;28;20055;-79
2022/05/30 07:59:35;;;;;;;1.83;0.90;;;12.50;99.90;;;;;;5039282;28;20066;-76
2022/05/30 08:02:02;;;;;;;2.00;0.80;;;12.60;99.90;;;;;;5061870;28;20048;-76
2022/05/30 08:04:29;;;;;;;3.90;0.70;;;12.60;99.90;;;;;;5050690;28;20028;-82
2022/05/30 08:06:58;;;;;;;1.27;0.63;;;12.70;99.90;;;;;;5037424;28;20049;-77
2022/05/30 08:09:44;;;;;;;1.60;0.50;;;12.70;99.90;;;;;;5070016;28;20604;-77
2022/05/30 08:12:12;;;;;;;2.47;0.50;;;12.60;99.90;;;;;;5058452;28;20040;-76
2022/05/30 08:14:58;;;;;;;3.20;0.67;;;12.60;99.90;;;;;;5060143;28;20044;-76
2022/05/30 08:17:43;;;;;;;3.60;0.70;;;12.60;99.90;;;;;;5064428;28;20056;-79
2022/05/30 08:20:11;;;;;;;3.30;0.73;;;12.80;99.90;;;;;;5048616;28;20041;-76
2022/05/30 08:22:38;;;;;;;2.57;0.80;;;13.00;99.90;;;;;;5013746;28;20051;-78
2022/05/30 08:25:08;;;;;;;1.93;0.70;;;13.20;99.90;;;;;;5047467;28;20044;-78
2022/05/30 08:27:34;;;;;;;1.87;0.60;;;13.40;99.90;;;;;;5046602;28;20041;-77
2022/05/30 08:30:04;;;;;;;2.73;0.60;;;13.30;99.90;;;;;;5052652;28;20037;-77
2022/05/30 08:32:34;;;;;;;1.87;0.50;;;13.20;99.90;;;;;;5041985;28;20044;-77
2022/05/30 08:35:19;;;;;;;1.77;0.50;;;13.20;99.90;;;;;;5038715;28;20097;-77
2022/05/30 08:37:47;;;;;;;1.73;0.50;;;13.00;99.90;;;;;;5065598;28;20137;-80
2022/05/30 08:43:06;;;;;;;3.20;0.70;;;12.80;99.90;;;;;;5039469;28;20033;-75
2022/05/30 08:45:41;;;;;;;3.57;0.97;;;12.70;99.90;;;;;;5036529;28;20048;-75
2022/05/30 08:48:38;;;;;;;2.83;0.63;;;12.60;99.90;;;;;;5034085;28;20546;-75
2022/05/30 08:51:16;;;;;;;1.80;0.60;;;12.60;99.90;;;;;;5036832;28;20051;-75
2022/05/30 08:54:02;;;;;;;3.43;0.97;;;12.60;99.90;;;;;;5020451;28;20726;-75
2022/05/30 08:56:33;;;;;;;3.25;0.73;;;12.60;99.90;;;;;;5040717;28;20068;-75
2022/05/30 08:59:42;;;;;;;3.70;0.90;;;12.60;99.90;;;;;;5039565;28;20060;-80
2022/05/30 09:02:11;;;;;;;;;;;12.60;99.90;;;;;;5042288;28;20052;-77
2022/05/30 09:04:47;;;;;;;1.40;0.53;;;12.50;99.90;;;;;;5025584;28;19927;-76
2022/05/30 09:07:16;;;;;;;3.77;1.07;;;12.50;99.90;;;;;;5048930;28;20389;-76
2022/05/30 09:09:51;;;;;;;1.27;0.50;;;12.50;99.90;;;;;;5022605;28;20148;-77
2022/05/30 09:12:30;;;;;;;3.27;0.70;;;12.50;99.90;;;;;;5038290;28;20502;-76
2022/05/30 09:15:15;;;;;;;3.07;0.60;;;12.60;99.90;;;;;;5045111;28;20032;-76
2022/05/30 09:17:45;;;;;;;1.80;0.60;;;12.80;99.90;;;;;;5041368;28;20056;-78
2022/05/30 09:20:15;;;;;;;1.80;0.50;;;13.00;99.90;;;;;;5046911;28;20457;-77
2022/05/30 09:22:42;;;;;;;1.63;0.50;;;13.30;99.90;;;;;;5012995;28;20037;-78
2022/05/30 09:28:20;;;;;;;1.10;0.50;;;13.50;99.90;;;;;;5039350;28;20048;-77
2022/05/30 09:31:32;;;;;;;1.60;0.40;;;13.80;99.90;;;;;;5048496;28;20389;-80
2022/05/30 09:34:37;;;;;;;1.53;0.50;;;14.20;99.90;;;;;;5047683;28;20061;-76
2022/05/30 09:37:26;;;;;;;;;;;14.40;99.90;;;;;;5034740;28;20060;-76
2022/05/30 09:40:03;;;;;;;1.90;0.50;;;14.60;99.90;;;;;;5025594;28;19917;-76
2022/05/30 09:42:33;;;;;;;1.03;0.40;;;14.70;99.90;;;;;;5047595;28;20036;-76
2022/05/30 09:45:08;;;;;;;1.07;0.40;;;14.80;99.90;;;;;;5046232;28;20045;-78
2022/05/30 09:48:01;;;;;;;3.30;0.90;;;15.10;99.90;;;;;;5032845;28;20055;-77
2022/05/30 09:50:42;;;;;;;1.53;0.63;;;15.40;99.90;;;;;;5035162;28;20959;-79
2022/05/30 09:53:09;;;;;;;1.37;0.77;;;15.60;99.90;;;;;;5047212;28;20045;-77
2022/05/30 09:55:37;;;;;;;1.30;0.60;;;15.90;99.90;;;;;;5049588;28;20044;-76
2022/05/30 09:58:11;;;;;;;1.53;0.70;;;15.90;99.90;;;;;;5035928;28;20037;-78
2022/05/30 10:00:58;;;;;;;1.03;0.50;;;16.10;99.90;;;;;;5052646;28;20083;-76
2022/05/30 10:03:30;;;;;;;0.70;0.40;;;16.30;99.90;;;;;;5040222;28;20047;-77
2022/05/30 10:06:18;;;;;;;0.60;0.30;;;16.20;99.90;;;;;;5044935;28;20131;-76
2022/05/30 10:08:46;;;;;;;0.73;0.30;;;16.20;99.90;;;;;;5045638;28;20045;-80
2022/05/30 10:11:30;;;;;;;1.53;0.40;;;16.20;99.90;;;;;;5032151;28;20033;-77
2022/05/30 10:13:59;;;;;;;1.13;0.40;;;16.20;99.90;;;;;;5061695;28;20124;-78
2022/05/30 10:16:55;;;;;;;3.72;0.40;;;16.20;99.90;;;;;;5023154;28;20052;-78
2022/05/30 10:19:25;;;;;;;1.20;0.40;;;16.20;99.90;;;;;;5038837;28;20149;-77
2022/05/30 10:28:45;;;;;;;1.93;0.60;;;16.40;99.90;;;;;;5045109;28;20036;-77
2022/05/30 10:31:45;;;;;;;2.10;0.50;;;16.60;99.90;;;;;;5033150;28;20047;-76
2022/05/30 10:34:42;;;;;;;1.67;0.40;;;17.00;99.90;;;;;;5041790;28;20040;-77
2022/05/30 10:37:31;;;;;;;3.03;0.60;;;17.60;99.90;;;;;;5048020;28;20040;-78
2022/05/30 10:40:11;;;;;;;2.43;0.50;;;17.70;99.90;;;;;;5043799;28;20050;-78
2022/05/30 10:42:45;;;;;;;3.93;0.63;;;17.50;99.90;;;;;;5040340;28;20047;-77
2022/05/30 10:45:16;;;;;;;0.80;0.33;;;17.30;99.90;;;;;;5037364;28;20049;-78
2022/05/30 10:47:48;;;;;;;1.97;0.73;;;17.20;99.90;;;;;;5047375;28;20044;-81
2022/05/30 10:50:23;;;;;;;1.87;0.40;;;17.10;99.90;;;;;;5039588;28;20049;-80
2022/05/30 10:52:56;;;;;;;3.10;0.40;;;17.20;99.90;;;;;;5026990;28;20492;-78
2022/05/30 10:55:36;;;;;;;3.50;0.80;;;17.30;99.90;;;;;;5040392;28;20049;-79
2022/05/30 10:58:08;;;;;;;1.90;0.50;;;17.40;99.90;;;;;;5075001;28;20036;-78
2022/05/30 11:00:40;;;;;;;1.17;0.60;;;17.50;99.90;;;;;;5038668;28;20060;-81
2022/05/30 11:03:16;;;;;;;1.40;0.50;;;17.50;99.90;;;;;;5027438;28;20131;-79
2022/05/30 11:05:47;;;;;;;1.53;0.60;;;17.70;99.90;;;;;;5060016;28;20060;-80
2022/05/30 11:08:21;;;;;;;3.70;0.63;;;17.60;99.90;;;;;;5037430;28;20067;-77
2022/05/30 11:10:50;;;;;;;1.03;0.47;;;17.30;99.90;;;;;;5016930;28;20060;-79
2022/05/30 11:13:37;;;;;;;3.00;0.50;;;16.90;99.70;;;;;;5055017;28;20048;-76
2022/05/30 11:16:33;;;;;;;2.87;0.40;;;16.40;99.90;;;;;;5029339;28;20395;-77
2022/05/30 11:19:23;;;;;;;1.20;0.40;;;16.10;99.90;;;;;;5040334;28;20055;-76
2022/05/30 11:22:16;;;;;;;1.88;0.60;;;16.00;99.90;;;;;;5033095;28;20070;-80
2022/05/30 11:24:46;;;;;;;1.70;0.50;;;15.90;99.90;;;;;;5043109;28;20187;-79
2022/05/30 11:27:28;;;;;;;1.30;0.43;;;15.80;99.90;;;;;;5038706;28;20044;-77
2022/05/30 11:30:29;;;;;;;1.57;0.40;;;15.60;99.90;;;;;;5063416;28;20037;-77
2022/05/30 11:33:25;;;;;;;1.33;0.50;;;15.50;99.90;;;;;;5013358;28;20080;-77
2022/05/30 11:36:04;;;;;;;2.23;0.73;;;15.50;99.90;;;;;;5028554;28;20415;-81
2022/05/30 11:38:41;;;;;;;2.10;0.50;;;15.30;99.90;;;;;;5040405;28;20040;-77
2022/05/30 11:41:23;;;;;;;0.70;0.40;;;15.40;99.40;;;;;;5045109;28;20044;-76
2022/05/30 11:44:18;;;;;;;1.73;0.53;;;15.30;99.20;;;;;;5057608;28;20048;-77
2022/05/30 11:46:54;;;;;;;1.43;0.60;;;15.30;99.90;;;;;;5042335;28;20128;-76
2022/05/30 11:49:28;;;;;;;1.83;0.60;;;15.30;99.90;;;;;;5031202;28;20033;-76
2022/05/30 11:52:10;;;;;;;3.40;0.70;;;15.20;99.90;;;;;;5054573;28;20097;-77
2022/05/30 11:55:05;;;;;;;3.03;0.53;;;15.00;99.90;;;;;;5046427;28;20573;-76
2022/05/30 11:57:37;;;;;;;3.07;0.83;;;14.90;99.90;;;;;;5056949;28;20049;-77
2022/05/30 12:00:09;;;;;;;1.93;0.70;;;14.60;99.90;;;;;;5044343;28;20048;-80
2022/05/30 12:02:57;;;;;;;2.03;0.80;;;14.40;99.90;;;;;;5047542;28;20044;-77
2022/05/30 12:05:49;;;;;;;2.20;0.90;;;14.20;99.90;;;;;;5023412;28;20041;-76
2022/05/30 12:08:47;;;;;;;2.63;0.70;;;14.00;99.90;;;;;;5039675;28;20048;-76
2022/05/30 12:11:37;;;;;;;1.93;0.70;;;13.80;99.90;;;;;;5054719;28;20081;-77
2022/05/30 12:14:20;;;;;;;3.63;0.90;;;13.70;99.90;;;;;;5062297;28;20055;-78
2022/05/30 12:16:51;;;;;;;1.07;0.63;;;13.60;99.90;;;;;;5061759;28;20570;-78
2022/05/30 12:23:48;;;;;;;3.93;0.80;;;13.40;99.90;;;;;;5061346;28;20114;-78
2022/05/30 12:25:50;;;;;;;1.67;0.63;;;13.30;99.90;;;;;;5045630;28;20041;-79
2022/05/30 12:28:55;;;;;;;3.77;0.70;;;13.20;99.90;;;;;;5022610;28;20056;-76
2022/05/30 12:31:38;;;;;;;3.03;0.93;;;13.10;99.90;;;;;;5010065;28;20044;-77
2022/05/30 12:34:06;;;;;;;4.10;0.80;;;13.10;99.90;;;;;;5056011;28;20051;-78
2022/05/30 12:36:38;;;;;;;3.37;0.90;;;13.10;99.90;;;;;;5058335;28;20037;-77
2022/05/30 12:39:34;;;;;;;4.67;1.30;;;13.10;99.90;;;;;;5036496;28;20043;-77
2022/05/30 12:42:07;;;;;;;3.93;0.87;;;13.20;99.90;;;;;;5054057;28;20044;-78
2022/05/30 12:44:54;;;;;;;2.28;0.70;;;13.20;99.90;;;;;;5050866;28;20052;-77
2022/05/30 12:47:28;;;;;;;2.13;0.70;;;13.20;99.90;;;;;;5053833;28;20049;-77
2022/05/30 12:50:15;;;;;;;2.60;0.60;;;13.20;99.90;;;;;;5037365;28;20037;-76
2022/05/30 12:52:55;;;;;;;2.37;0.63;;;13.40;99.90;;;;;;5060408;28;20076;-76
2022/05/30 12:55:33;;;;;;;2.50;0.80;;;13.40;99.90;;;;;;5044371;28;20388;-77
2022/05/30 12:58:00;;;;;;;2.33;0.60;;;13.50;99.90;;;;;;5044130;28;20048;-76
2022/05/30 13:00:58;;;;;;;1.90;0.50;;;13.50;99.90;;;;;;5042526;28;20099;-76
2022/05/30 13:03:44;;;;;;;3.97;0.60;;;13.60;99.90;;;;;;5056138;28;20503;-77
2022/05/30 13:06:17;;;;;;;3.20;0.70;;;13.70;99.90;;;;;;5055838;28;20044;-77
2022/05/30 13:08:54;;;;;;;1.70;0.70;;;13.80;99.90;;;;;;5054560;28;20127;-77
2022/05/30 13:11:45;;;;;;;2.70;0.80;;;14.00;99.90;;;;;;5021518;28;20053;-77
2022/05/30 13:14:19;;;;;;;1.57;0.50;;;14.10;99.90;;;;;;5027107;28;20041;-77
2022/05/30 13:16:51;;;;;;;2.40;0.63;;;14.30;99.90;;;;;;5070389;28;20138;-78
2022/05/30 13:19:17;;;;;;;3.10;0.70;;;14.40;99.90;;;;;;5045145;28;20053;-76
2022/05/30 13:21:46;;;;;;;1.73;0.50;;;14.70;99.90;;;;;;5042451;28;20153;-79
2022/05/30 13:24:26;;;;;;;1.43;0.53;;;14.80;99.90;;;;;;5025453;28;20127;-78
2022/05/30 13:26:53;;;;;;;4.30;0.70;;;15.00;99.90;;;;;;5050101;28;20048;-79
2022/05/30 13:29:21;;;;;;;3.17;0.90;;;15.10;99.90;;;;;;5060270;28;20052;-78
2022/05/30 13:31:49;;;;;;;1.57;0.50;;;15.30;99.90;;;;;;5054417;28;20045;-77
2022/05/30 13:34:21;;;;;;;3.17;0.80;;;15.50;99.90;;;;;;5044229;28;20495;-77
2022/05/30 13:36:49;;;;;;;2.63;0.60;;;15.70;99.90;;;;;;5042881;28;20118;-78
2022/05/30 13:39:14;;;;;;;1.53;0.63;;;15.80;99.90;;;;;;5063182;28;20080;-78
2022/05/30 13:41:41;;;;;;;4.73;0.70;;;15.80;99.90;;;;;;5060569;28;20071;-77
2022/05/30 13:44:10;;;;;;;2.60;0.80;;;15.90;99.90;;;;;;5037462;28;20041;-76
2022/05/30 13:46:43;;;;;;;3.07;0.80;;;16.10;99.90;;;;;;5042926;28;20044;-77
2022/05/30 13:49:08;;;;;;;2.07;0.87;;;16.30;99.90;;;;;;5064381;28;20041;-83
2022/05/30 13:51:36;;;;;;;1.57;0.40;;;16.40;99.90;;;;;;5036953;28;21058;-76
2022/05/30 13:54:05;;;;;;;0.83;0.53;;;16.50;99.90;;;;;;5055973;28;20049;-77
2022/05/30 13:56:34;;;;;;;1.90;0.50;;;16.40;99.90;;;;;;5067624;28;20049;-76